Time;durP1;ratioP1;P1;durP2;ratioP2;P2;SDS_P1;SDS_P2;PMS_P1;PMS_P2;Temp;Humidity;BMP_temperature;BMP_pressure;BME280_temperature;BME280_humidity;BME280_pressure;Samples;Min_cycle;Max_cycle;Signal;HPM_P1;HPM_P2
2023/01/03 00:01:24;;;;;;;10.82;6.30;;;5.80;99.90;;;;;;5112503;28;20166;-52
2023/01/03 00:03:52;;;;;;;13.00;5.70;;;5.70;99.90;;;;;;5112698;28;20214;-52
2023/01/03 00:06:20;;;;;;;9.15;5.88;;;5.70;99.90;;;;;;5112576;28;20681;-53
2023/01/03 00:08:46;;;;;;;7.63;5.53;;;5.70;99.90;;;;;;5112832;28;20260;-53
2023/01/03 00:11:14;;;;;;;8.43;5.53;;;5.60;99.90;;;;;;5112711;28;20185;-50
2023/01/03 00:13:40;;;;;;;7.25;5.60;;;5.60;99.90;;;;;;5116062;28;20208;-53
2023/01/03 00:16:17;;;;;;;9.27;6.47;;;5.60;99.90;;;;;;5116032;28;20263;-52
2023/01/03 00:18:43;;;;;;;7.93;5.88;;;5.50;99.90;;;;;;5116299;28;20180;-50
2023/01/03 00:21:08;;;;;;;9.20;5.80;;;5.50;99.90;;;;;;5115162;28;20172;-52
2023/01/03 00:23:34;;;;;;;12.00;6.38;;;5.50;99.90;;;;;;5115901;28;20206;-53
2023/01/03 00:26:11;;;;;;;7.85;6.00;;;5.50;99.90;;;;;;5116028;28;20227;-54
2023/01/03 00:28:37;;;;;;;9.23;6.20;;;5.50;99.90;;;;;;5114916;28;20168;-52
2023/01/03 00:31:07;;;;;;;8.10;5.80;;;5.50;99.90;;;;;;5116171;28;20641;-50
2023/01/03 00:33:35;;;;;;;11.02;6.10;;;5.50;99.90;;;;;;5115865;28;20176;-53
2023/01/03 00:36:02;;;;;;;9.02;6.75;;;5.50;99.90;;;;;;5115851;28;20622;-50
2023/01/03 00:38:28;;;;;;;8.32;6.30;;;5.50;99.90;;;;;;5115637;28;20634;-53
2023/01/03 00:40:53;;;;;;;10.02;6.57;;;5.50;99.90;;;;;;5114781;28;20216;-53
2023/01/03 00:43:28;;;;;;;8.88;6.03;;;5.50;99.90;;;;;;5116002;28;20544;-52
2023/01/03 00:45:53;;;;;;;8.50;6.03;;;5.40;99.90;;;;;;5116299;28;20199;-51
2023/01/03 00:48:19;;;;;;;8.95;6.38;;;5.40;99.90;;;;;;5116346;28;20650;-51
2023/01/03 00:50:45;;;;;;;10.00;6.97;;;5.40;99.90;;;;;;5116173;28;20184;-51
2023/01/03 00:53:10;;;;;;;10.10;7.47;;;5.40;99.90;;;;;;5114704;28;20188;-54
2023/01/03 00:55:36;;;;;;;9.52;6.88;;;5.30;99.90;;;;;;5115971;28;20600;-52
2023/01/03 00:58:02;;;;;;;9.00;6.97;;;5.30;99.90;;;;;;5115947;28;20183;-53
2023/01/03 01:00:27;;;;;;;11.48;7.07;;;5.30;99.90;;;;;;5115099;28;20256;-51
2023/01/03 01:02:53;;;;;;;9.63;6.75;;;5.40;99.90;;;;;;5115951;28;20173;-53
2023/01/03 01:05:19;;;;;;;9.38;6.20;;;5.40;99.90;;;;;;5115757;28;20176;-52
2023/01/03 01:07:45;;;;;;;10.48;6.97;;;5.40;99.90;;;;;;5114461;28;20333;-51
2023/01/03 01:10:11;;;;;;;11.45;6.63;;;5.30;99.90;;;;;;5114369;28;20713;-53
2023/01/03 01:12:37;;;;;;;15.40;6.88;;;5.30;99.90;;;;;;5116222;28;20638;-52
2023/01/03 01:15:03;;;;;;;12.40;7.22;;;5.30;99.90;;;;;;5115741;28;20205;-53
2023/01/03 01:17:28;;;;;;;14.45;7.28;;;5.30;99.90;;;;;;5115708;28;20322;-53
2023/01/03 01:19:54;;;;;;;12.05;7.45;;;5.30;99.90;;;;;;5115681;28;20673;-51
2023/01/03 01:22:20;;;;;;;10.07;6.05;;;5.20;99.90;;;;;;5115419;28;20181;-54
2023/01/03 01:24:45;;;;;;;10.63;6.68;;;5.30;99.90;;;;;;5115024;28;20314;-52
2023/01/03 01:27:11;;;;;;;11.48;6.78;;;5.30;99.90;;;;;;5115221;28;20560;-55
2023/01/03 01:29:37;;;;;;;9.05;6.10;;;5.40;99.90;;;;;;5115760;28;20181;-53
2023/01/03 01:32:03;;;;;;;10.70;7.03;;;5.30;99.90;;;;;;5115438;28;20177;-51
2023/01/03 01:34:30;;;;;;;10.60;6.25;;;5.40;99.90;;;;;;5115261;28;20177;-52
2023/01/03 01:36:56;;;;;;;10.80;6.70;;;5.30;99.90;;;;;;5115056;28;20256;-52
2023/01/03 01:39:24;;;;;;;8.35;5.97;;;5.30;99.90;;;;;;5114919;28;20204;-54
2023/01/03 01:44:41;;;;;;;9.57;6.60;;;5.30;99.90;;;;;;5115569;28;20278;-53
2023/01/03 01:47:14;;;;;;;7.97;6.07;;;5.30;99.90;;;;;;5114940;28;20173;-53
2023/01/03 01:49:41;;;;;;;10.45;6.28;;;5.20;99.90;;;;;;5114899;28;20177;-53
2023/01/03 01:52:09;;;;;;;10.18;6.45;;;5.20;99.90;;;;;;5115005;28;20165;-54
2023/01/03 01:54:35;;;;;;;8.02;5.78;;;5.20;99.90;;;;;;5114946;28;20234;-56
2023/01/03 01:57:00;;;;;;;8.38;6.05;;;5.10;99.90;;;;;;5114779;28;20177;-54
2023/01/03 01:59:27;;;;;;;11.63;6.10;;;5.10;99.90;;;;;;5114699;28;20240;-54
2023/01/03 02:01:53;;;;;;;8.38;6.45;;;5.20;99.90;;;;;;5114795;28;20690;-53
2023/01/03 02:04:27;;;;;;;7.03;5.90;;;5.10;99.90;;;;;;5113628;28;20267;-54
2023/01/03 02:06:55;;;;;;;7.13;6.15;;;5.20;99.90;;;;;;5114625;28;20705;-53
2023/01/03 02:09:20;;;;;;;12.68;6.57;;;5.20;99.90;;;;;;5114670;28;20179;-52
2023/01/03 02:14:55;;;;;;;13.88;7.53;;;5.10;99.90;;;;;;5092505;28;20659;-53
2023/01/03 02:18:00;;;;;;;12.88;6.45;;;5.10;99.90;;;;;;5114640;28;20199;-53
2023/01/03 02:20:35;;;;;;;9.75;6.72;;;5.10;99.90;;;;;;5114354;28;20208;-54
2023/01/03 02:23:04;;;;;;;10.35;6.88;;;5.10;99.90;;;;;;5114429;28;20183;-53
2023/01/03 02:25:35;;;;;;;10.63;7.70;;;5.10;99.90;;;;;;5114568;28;20168;-52
2023/01/03 02:28:38;;;;;;;12.60;6.97;;;5.10;99.90;;;;;;5114099;28;20633;-53
2023/01/03 02:32:02;;;;;;;10.45;7.13;;;5.10;99.90;;;;;;5114111;28;20176;-51
2023/01/03 02:34:35;;;;;;;11.38;7.20;;;5.10;99.90;;;;;;5051361;28;20199;-53
2023/01/03 02:37:13;;;;;;;9.43;7.53;;;5.10;99.90;;;;;;5113518;28;20176;-54
2023/01/03 02:40:00;;;;;;;9.43;7.45;;;5.10;99.90;;;;;;5113893;28;20205;-52
2023/01/03 02:43:04;;;;;;;9.52;7.63;;;5.00;99.90;;;;;;5113839;28;20184;-54
2023/01/03 02:45:49;;;;;;;13.38;7.97;;;5.00;99.90;;;;;;5114189;28;20183;-52
2023/01/03 02:48:28;;;;;;;10.20;7.78;;;5.00;99.90;;;;;;5114152;28;20178;-53
2023/01/03 02:50:57;;;;;;;13.43;8.02;;;5.00;99.90;;;;;;5113936;28;20186;-53
2023/01/03 02:53:31;;;;;;;12.15;7.32;;;5.00;99.90;;;;;;5113976;28;20633;-54
2023/01/03 02:56:03;;;;;;;14.70;8.95;;;5.00;99.90;;;;;;5114017;28;20176;-53
2023/01/03 02:58:32;;;;;;;9.60;8.43;;;5.00;99.90;;;;;;5113595;28;20181;-52
2023/01/03 03:01:01;;;;;;;10.70;7.43;;;5.10;99.90;;;;;;5113826;28;20204;-51
2023/01/03 03:03:31;;;;;;;9.98;7.05;;;5.10;99.90;;;;;;5113731;28;20693;-50
2023/01/03 03:06:19;;;;;;;10.32;7.13;;;5.10;99.90;;;;;;5113773;28;20203;-53
2023/01/03 03:08:46;;;;;;;10.70;7.75;;;5.10;99.90;;;;;;5113525;28;20275;-53
2023/01/03 03:14:05;;;;;;;10.25;8.13;;;5.10;99.90;;;;;;5113900;28;20229;-51
2023/01/03 03:16:48;;;;;;;12.88;8.60;;;5.10;99.90;;;;;;5113744;28;20656;-51
2023/01/03 03:25:40;;;;;;;10.82;8.45;;;5.00;99.90;;;;;;5113498;28;20180;-50
2023/01/03 03:31:07;;;;;;;13.10;9.10;;;5.00;99.90;;;;;;5113415;28;20599;-55
2023/01/03 03:33:56;;;;;;;13.43;8.65;;;5.10;99.90;;;;;;5113433;28;20176;-51
2023/01/03 03:36:33;;;;;;;12.50;9.05;;;5.10;99.90;;;;;;5113571;28;20237;-51
2023/01/03 03:39:00;;;;;;;11.80;9.30;;;5.10;99.90;;;;;;5113336;28;20182;-51
2023/01/03 03:47:55;;;;;;;16.88;10.68;;;5.30;99.90;;;;;;5115500;28;20316;-52
2023/01/03 03:50:24;;;;;;;12.90;10.40;;;5.40;99.90;;;;;;5117215;28;20176;-52
2023/01/03 03:52:56;;;;;;;14.05;10.95;;;5.60;99.90;;;;;;5117628;28;20224;-51
2023/01/03 03:55:29;;;;;;;13.07;10.43;;;5.70;99.90;;;;;;5117619;28;20180;-53
2023/01/03 03:58:14;;;;;;;15.32;10.95;;;5.80;99.90;;;;;;5117492;28;20169;-51
2023/01/03 04:00:42;;;;;;;15.68;11.07;;;5.80;99.90;;;;;;5117082;28;20205;-51
2023/01/03 04:03:09;;;;;;;14.73;10.45;;;5.90;99.90;;;;;;5117118;28;20199;-53
2023/01/03 04:05:41;;;;;;;16.00;11.45;;;6.00;99.90;;;;;;5117115;28;20208;-52
2023/01/03 04:08:07;;;;;;;12.80;9.45;;;6.10;99.90;;;;;;5116955;28;20519;-51
2023/01/03 04:10:33;;;;;;;13.75;10.68;;;6.20;99.90;;;;;;5116980;28;20184;-51
2023/01/03 04:12:59;;;;;;;11.80;10.10;;;6.20;99.90;;;;;;5116707;28;20166;-55
2023/01/03 04:15:24;;;;;;;13.05;11.65;;;6.20;99.90;;;;;;5115387;28;20184;-52
2023/01/03 04:17:50;;;;;;;19.25;10.27;;;6.40;99.90;;;;;;5116887;28;20183;-51
2023/01/03 04:20:17;;;;;;;13.00;11.30;;;6.40;99.90;;;;;;5116737;28;20215;-53
2023/01/03 04:22:43;;;;;;;11.70;10.27;;;6.40;99.90;;;;;;5116698;28;20173;-53
2023/01/03 04:25:09;;;;;;;15.18;9.60;;;6.40;99.90;;;;;;5115445;28;20625;-53
2023/01/03 04:27:34;;;;;;;11.57;10.25;;;6.40;99.90;;;;;;5116484;28;20169;-55
2023/01/03 04:30:00;;;;;;;14.18;10.20;;;6.40;99.90;;;;;;5116475;28;20716;-51
2023/01/03 04:32:26;;;;;;;12.93;11.18;;;6.40;99.90;;;;;;5116640;28;20649;-54
2023/01/03 04:34:51;;;;;;;14.55;10.73;;;6.50;99.90;;;;;;5116400;27;20188;-52
2023/01/03 04:37:17;;;;;;;12.38;10.98;;;6.60;99.90;;;;;;5116536;28;20194;-54
2023/01/03 04:39:43;;;;;;;14.30;9.35;;;6.60;99.90;;;;;;5116389;28;20205;-53
2023/01/03 04:44:52;;;;;;;14.52;10.82;;;6.60;99.90;;;;;;5116850;28;20253;-53
2023/01/03 04:47:18;;;;;;;13.35;9.73;;;6.50;99.90;;;;;;5115128;28;20630;-51
2023/01/03 04:49:45;;;;;;;15.02;11.20;;;6.50;99.90;;;;;;5116165;28;20181;-52
2023/01/03 04:52:12;;;;;;;12.80;9.15;;;6.50;99.90;;;;;;5116072;28;20201;-55
2023/01/03 04:54:38;;;;;;;13.23;11.00;;;6.50;99.90;;;;;;5115950;28;20176;-53
2023/01/03 04:57:04;;;;;;;13.75;11.00;;;6.50;99.90;;;;;;5115905;28;20176;-51
2023/01/03 04:59:30;;;;;;;12.73;10.18;;;6.50;99.90;;;;;;5115086;28;20479;-52
2023/01/03 05:01:55;;;;;;;13.80;11.05;;;6.60;99.90;;;;;;5114761;28;20647;-53
2023/01/03 05:04:21;;;;;;;13.00;11.07;;;6.60;99.90;;;;;;5115907;28;20169;-51
2023/01/03 05:06:47;;;;;;;11.95;10.30;;;6.70;99.90;;;;;;5115852;28;20169;-53
2023/01/03 05:09:12;;;;;;;15.93;10.32;;;6.70;99.90;;;;;;5115794;28;20634;-52
2023/01/03 05:11:38;;;;;;;14.10;9.68;;;6.70;99.90;;;;;;5115858;28;20538;-52
2023/01/03 05:14:04;;;;;;;11.20;9.43;;;6.70;99.90;;;;;;5115534;28;20267;-54
2023/01/03 05:16:29;;;;;;;12.40;9.30;;;6.70;99.90;;;;;;5115541;28;20634;-51
2023/01/03 05:18:55;;;;;;;14.13;9.60;;;6.70;99.90;;;;;;5115527;28;20260;-53
2023/01/03 05:26:53;;;;;;;12.95;9.82;;;6.80;99.90;;;;;;5115430;28;20172;-53
2023/01/03 05:29:20;;;;;;;12.15;9.63;;;6.80;99.90;;;;;;5115701;28;20173;-53
2023/01/03 05:31:46;;;;;;;13.73;10.27;;;6.80;99.90;;;;;;5115477;27;20183;-51
2023/01/03 05:34:12;;;;;;;11.30;10.20;;;6.90;99.90;;;;;;5115317;28;20242;-53
2023/01/03 05:36:38;;;;;;;11.57;10.35;;;6.90;99.90;;;;;;5115264;28;20174;-53
2023/01/03 05:39:04;;;;;;;13.55;9.35;;;6.80;99.90;;;;;;5115242;28;20284;-52
2023/01/03 05:44:15;;;;;;;15.55;11.13;;;6.80;99.90;;;;;;5115245;28;20237;-51
2023/01/03 05:46:41;;;;;;;12.88;9.30;;;6.80;99.90;;;;;;5113738;28;20545;-53
2023/01/03 05:49:07;;;;;;;9.48;8.50;;;6.90;99.90;;;;;;5114958;28;20259;-54
2023/01/03 05:51:33;;;;;;;12.65;8.85;;;6.90;99.90;;;;;;5115371;28;20173;-54
2023/01/03 05:53:58;;;;;;;13.50;10.05;;;6.70;99.90;;;;;;5114930;28;20586;-55
2023/01/03 05:56:24;;;;;;;14.45;9.52;;;6.70;99.90;;;;;;5114856;27;20180;-53
2023/01/03 05:58:50;;;;;;;13.77;10.50;;;6.60;99.90;;;;;;5114906;28;20173;-53
2023/01/03 06:01:16;;;;;;;15.43;11.80;;;6.70;99.90;;;;;;5114597;28;20183;-52
2023/01/03 06:03:45;;;;;;;13.95;9.93;;;6.70;99.90;;;;;;5114533;28;20534;-54
2023/01/03 06:06:13;;;;;;;12.13;10.35;;;6.60;99.90;;;;;;5114978;28;20172;-51
2023/01/03 06:08:40;;;;;;;18.45;11.98;;;6.60;99.90;;;;;;5114665;28;20187;-52
2023/01/03 06:11:10;;;;;;;16.25;13.07;;;6.60;99.90;;;;;;5114741;28;20492;-54
2023/01/03 06:13:37;;;;;;;19.05;14.20;;;6.70;99.90;;;;;;5114483;28;20183;-51
2023/01/03 06:18:53;;;;;;;20.45;12.80;;;6.90;99.90;;;;;;5114534;28;20184;-54
2023/01/03 06:21:18;;;;;;;18.48;15.85;;;7.00;99.90;;;;;;5114341;28;20173;-53
2023/01/03 06:23:46;;;;;;;19.85;15.75;;;6.90;99.90;;;;;;5114344;28;20181;-53
2023/01/03 06:26:16;;;;;;;21.55;15.45;;;7.00;99.90;;;;;;5114379;28;20252;-54
2023/01/03 06:28:42;;;;;;;21.67;16.67;;;7.00;99.90;;;;;;5114388;28;20180;-54
2023/01/03 06:31:08;;;;;;;20.38;15.50;;;7.20;99.90;;;;;;5114068;28;20184;-51
2023/01/03 06:33:34;;;;;;;19.85;17.33;;;7.20;99.90;;;;;;5114235;28;20584;-53
2023/01/03 06:36:06;;;;;;;25.08;16.83;;;7.20;99.90;;;;;;5114074;28;20168;-54
2023/01/03 06:38:31;;;;;;;23.27;16.60;;;7.10;99.90;;;;;;5114016;28;20168;-51
2023/01/03 06:40:57;;;;;;;23.30;17.50;;;7.30;99.90;;;;;;5114208;28;20725;-51
2023/01/03 06:43:23;;;;;;;26.30;17.25;;;7.30;99.90;;;;;;5112107;28;20189;-54
2023/01/03 06:54:05;;;;;;;27.75;16.90;;;7.40;99.90;;;;;;5113269;28;20564;-52
2023/01/03 06:56:34;;;;;;;32.20;20.42;;;7.40;99.90;;;;;;5113808;28;20190;-53
2023/01/03 06:58:59;;;;;;;24.88;19.25;;;7.40;99.90;;;;;;5113245;28;20177;-54
2023/01/03 07:01:25;;;;;;;25.67;19.52;;;7.50;99.90;;;;;;5113175;28;20173;-52
2023/01/03 07:03:51;;;;;;;27.58;18.02;;;7.50;99.90;;;;;;5113070;28;20276;-52
2023/01/03 07:06:16;;;;;;;24.58;19.45;;;7.60;99.90;;;;;;5113092;28;20184;-53
2023/01/03 07:08:45;;;;;;;27.45;18.67;;;7.50;99.90;;;;;;5111711;28;20180;-52
2023/01/03 07:11:11;;;;;;;26.42;19.83;;;7.50;99.90;;;;;;5113296;28;20260;-53
2023/01/03 07:16:21;;;;;;;24.95;19.65;;;7.60;99.90;;;;;;5113316;28;20711;-53
2023/01/03 07:18:48;;;;;;;30.90;19.50;;;7.50;99.90;;;;;;5111642;28;20184;-52
2023/01/03 07:21:14;;;;;;;25.88;20.10;;;7.60;99.90;;;;;;5111877;28;20279;-50
2023/01/03 07:23:40;;;;;;;24.75;18.83;;;7.60;99.90;;;;;;5116610;28;20243;-51
2023/01/03 07:26:06;;;;;;;23.73;18.67;;;7.70;99.90;;;;;;5117213;28;20173;-53
2023/01/03 07:28:32;;;;;;;23.70;18.05;;;7.70;99.90;;;;;;5117182;28;20541;-50
2023/01/03 07:31:04;;;;;;;26.38;18.35;;;7.70;99.90;;;;;;5117135;28;20169;-51
2023/01/03 07:33:30;;;;;;;27.15;19.30;;;7.70;99.90;;;;;;5116914;28;20169;-50
2023/01/03 07:36:05;;;;;;;23.98;18.90;;;7.80;99.90;;;;;;5117099;28;20170;-50
2023/01/03 07:38:31;;;;;;;26.02;19.02;;;7.70;99.90;;;;;;5117047;28;20161;-52
2023/01/03 07:40:58;;;;;;;25.33;18.45;;;7.70;99.90;;;;;;5116732;28;20228;-50
2023/01/03 07:43:36;;;;;;;24.30;18.08;;;7.70;99.90;;;;;;5117053;28;20189;-52
2023/01/03 07:46:23;;;;;;;26.00;20.13;;;7.80;99.90;;;;;;5115443;28;20177;-50
2023/01/03 07:48:52;;;;;;;24.48;16.20;;;7.70;99.90;;;;;;5116280;28;20241;-52
2023/01/03 07:51:19;;;;;;;27.67;20.15;;;7.80;99.90;;;;;;5111015;28;20185;-54
2023/01/03 07:53:51;;;;;;;25.33;19.75;;;7.80;99.90;;;;;;5112104;28;20204;-52
2023/01/03 07:56:18;;;;;;;25.00;18.85;;;7.80;99.90;;;;;;5114921;28;20197;-52
2023/01/03 07:58:45;;;;;;;28.55;20.00;;;7.80;99.90;;;;;;5098191;28;20246;-52
2023/01/03 08:01:13;;;;;;;26.15;18.52;;;7.70;99.90;;;;;;5116377;28;20665;-50
2023/01/03 08:03:40;;;;;;;26.35;19.13;;;7.80;99.90;;;;;;5116195;28;20173;-52
2023/01/03 08:06:08;;;;;;;24.67;18.85;;;7.90;99.90;;;;;;5116563;27;20653;-53
2023/01/03 08:08:35;;;;;;;27.83;18.58;;;7.90;99.90;;;;;;5115097;28;20243;-52
2023/01/03 08:13:45;;;;;;;27.65;18.92;;;8.00;99.90;;;;;;5116278;28;20642;-51
2023/01/03 08:16:13;;;;;;;24.88;19.05;;;7.90;99.90;;;;;;5115904;28;20169;-52
2023/01/03 08:18:40;;;;;;;27.48;18.80;;;8.00;99.90;;;;;;5116074;28;20260;-51
2023/01/03 08:21:07;;;;;;;28.45;19.33;;;8.00;99.90;;;;;;5115791;27;20662;-54
2023/01/03 08:23:33;;;;;;;30.08;19.83;;;8.00;99.90;;;;;;5115554;28;20172;-52
2023/01/03 08:26:08;;;;;;;25.60;20.13;;;8.00;99.90;;;;;;5116212;28;20238;-52
2023/01/03 08:28:34;;;;;;;25.33;19.58;;;8.10;99.90;;;;;;5116072;28;20264;-53
2023/01/03 08:31:21;;;;;;;31.02;20.58;;;8.10;99.90;;;;;;5115416;28;20677;-54
2023/01/03 08:33:56;;;;;;;29.13;20.35;;;8.10;99.90;;;;;;5114095;28;20592;-54
2023/01/03 08:36:25;;;;;;;29.33;21.00;;;8.10;99.90;;;;;;5114762;28;20541;-53
2023/01/03 08:39:03;;;;;;;29.00;17.02;;;8.10;99.90;;;;;;5115903;28;20556;-53
2023/01/03 08:41:32;;;;;;;29.73;20.05;;;8.10;99.90;;;;;;5115653;28;20223;-53
2023/01/03 08:44:03;;;;;;;27.05;20.95;;;8.20;99.90;;;;;;5115466;28;20185;-52
2023/01/03 08:46:31;;;;;;;30.38;20.90;;;8.20;99.90;;;;;;5115569;28;20176;-53
2023/01/03 08:48:58;;;;;;;30.10;21.52;;;8.20;99.90;;;;;;5115810;28;20187;-52
2023/01/03 08:51:25;;;;;;;29.98;22.20;;;8.20;99.90;;;;;;5115702;27;20174;-51
2023/01/03 08:53:51;;;;;;;31.65;22.08;;;8.30;99.90;;;;;;5115353;28;20637;-50
2023/01/03 08:56:18;;;;;;;32.53;22.70;;;8.30;99.90;;;;;;5114943;28;20172;-56
2023/01/03 08:58:44;;;;;;;28.98;21.50;;;8.30;99.90;;;;;;5115144;28;20185;-51
2023/01/03 09:01:10;;;;;;;29.70;22.15;;;8.40;99.90;;;;;;5114759;28;20346;-53
2023/01/03 09:03:36;;;;;;;27.77;21.40;;;8.30;99.90;;;;;;5113994;28;20636;-54
2023/01/03 09:06:03;;;;;;;29.67;20.65;;;8.40;99.90;;;;;;5114818;28;20169;-54
2023/01/03 09:08:33;;;;;;;28.45;21.50;;;8.30;99.90;;;;;;5114997;28;20664;-53
2023/01/03 09:11:04;;;;;;;27.65;20.45;;;8.30;99.90;;;;;;5113829;28;20181;-56
2023/01/03 09:13:29;;;;;;;24.70;20.23;;;8.40;99.90;;;;;;5115220;28;20188;-51
2023/01/03 09:16:07;;;;;;;26.45;19.95;;;8.40;99.90;;;;;;5114100;28;20201;-49
2023/01/03 09:18:33;;;;;;;28.65;19.95;;;8.40;99.90;;;;;;5115159;28;20161;-54
2023/01/03 09:20:59;;;;;;;26.38;17.88;;;8.40;99.90;;;;;;5114950;28;20205;-54
2023/01/03 09:23:25;;;;;;;20.80;16.92;;;8.40;99.90;;;;;;5114610;28;20173;-55
2023/01/03 09:25:51;;;;;;;22.60;16.48;;;8.50;99.90;;;;;;5114765;28;20181;-52
2023/01/03 09:28:17;;;;;;;19.17;16.35;;;8.60;99.90;;;;;;5114707;28;20580;-52
2023/01/03 09:30:43;;;;;;;19.98;15.15;;;8.70;99.90;;;;;;5113658;28;20181;-52
2023/01/03 09:33:09;;;;;;;17.27;15.50;;;8.60;99.90;;;;;;5114767;28;20535;-54
2023/01/03 09:35:37;;;;;;;17.50;14.07;;;8.80;99.90;;;;;;5113793;28;20188;-52
2023/01/03 09:38:02;;;;;;;18.65;12.70;;;8.90;99.90;;;;;;5114736;28;20185;-56
2023/01/03 09:40:38;;;;;;;14.75;11.82;;;8.90;99.90;;;;;;5114308;28;20670;-55
2023/01/03 09:43:13;;;;;;;16.35;11.10;;;9.00;99.90;;;;;;5114847;28;20189;-53
2023/01/03 09:45:51;;;;;;;13.13;10.02;;;9.00;99.90;;;;;;5114141;28;20169;-53
2023/01/03 09:48:19;;;;;;;14.93;9.55;;;9.00;99.90;;;;;;5114443;28;20169;-53
2023/01/03 09:50:46;;;;;;;12.13;8.75;;;8.90;99.90;;;;;;5114402;28;20165;-52
2023/01/03 10:05:15;;;;;;;10.40;7.97;;;9.00;99.90;;;;;;5114111;28;20176;-53
2023/01/03 10:07:48;;;;;;;13.02;8.38;;;9.10;99.90;;;;;;5113972;28;20248;-52
2023/01/03 10:10:43;;;;;;;14.07;8.25;;;9.10;99.90;;;;;;5114181;28;20204;-53
2023/01/03 10:13:40;;;;;;;11.98;8.35;;;9.20;99.90;;;;;;5112117;28;20221;-52
2023/01/03 10:16:15;;;;;;;10.52;8.13;;;9.20;99.90;;;;;;5113712;28;20211;-52
2023/01/03 10:18:47;;;;;;;10.93;7.55;;;9.30;99.90;;;;;;5114032;28;20226;-53
2023/01/03 10:21:53;;;;;;;10.85;7.20;;;9.30;99.90;;;;;;5113914;28;20209;-56
2023/01/03 10:24:24;;;;;;;9.25;6.80;;;9.40;99.90;;;;;;5113710;28;20202;-51
2023/01/03 10:27:17;;;;;;;10.98;6.68;;;9.40;99.90;;;;;;5113637;28;20259;-54
2023/01/03 10:29:45;;;;;;;11.55;6.53;;;9.20;99.90;;;;;;5107291;28;20273;-53
2023/01/03 10:32:48;;;;;;;11.55;6.28;;;9.20;99.90;;;;;;5113622;28;20223;-53
2023/01/03 10:35:23;;;;;;;16.30;6.63;;;9.20;99.90;;;;;;5113795;28;20172;-53
2023/01/03 10:37:54;;;;;;;8.88;5.80;;;9.30;99.90;;;;;;5113793;28;20188;-54
2023/01/03 10:40:29;;;;;;;28.10;7.60;;;9.40;99.90;;;;;;5113355;28;20463;-54
2023/01/03 10:42:58;;;;;;;13.40;5.95;;;9.50;99.90;;;;;;5113462;28;20337;-54
2023/01/03 10:45:24;;;;;;;8.65;5.03;;;9.40;99.90;;;;;;5112105;28;20185;-55
2023/01/03 10:48:00;;;;;;;8.52;5.13;;;9.40;99.90;;;;;;5113528;28;20170;-54
2023/01/03 10:50:27;;;;;;;9.15;4.82;;;9.40;99.90;;;;;;5113401;27;20177;-53
2023/01/03 10:52:59;;;;;;;8.05;4.70;;;9.30;99.90;;;;;;5113525;28;20171;-53
2023/01/03 10:55:25;;;;;;;7.75;4.97;;;9.30;99.90;;;;;;5113583;28;20161;-53
2023/01/03 10:57:51;;;;;;;8.55;5.18;;;9.30;99.90;;;;;;5112257;28;20181;-54
2023/01/03 11:00:26;;;;;;;8.50;5.47;;;9.30;99.90;;;;;;5113229;28;20696;-54
2023/01/03 11:03:00;;;;;;;8.38;5.13;;;9.40;99.90;;;;;;5113270;28;20183;-53
2023/01/03 11:05:26;;;;;;;12.82;5.47;;;9.40;99.90;;;;;;5113285;28;20173;-53
2023/01/03 11:07:58;;;;;;;10.02;5.53;;;9.40;99.90;;;;;;5113132;28;20329;-53
2023/01/03 11:10:37;;;;;;;8.52;5.50;;;9.50;99.90;;;;;;5113541;28;20256;-54
2023/01/03 11:13:23;;;;;;;8.38;5.25;;;9.50;99.90;;;;;;5114142;28;20177;-53
2023/01/03 11:16:00;;;;;;;9.35;5.10;;;9.50;99.90;;;;;;5102736;28;20192;-53
2023/01/03 11:18:27;;;;;;;9.60;4.97;;;9.50;99.90;;;;;;5113425;28;20712;-53
2023/01/03 11:21:13;;;;;;;7.38;4.95;;;9.50;99.90;;;;;;5113429;28;20657;-53
2023/01/03 11:23:51;;;;;;;7.88;5.00;;;9.50;99.90;;;;;;5113506;28;20222;-53
2023/01/03 11:26:35;;;;;;;8.80;5.40;;;9.60;99.90;;;;;;5113590;28;20263;-52
2023/01/03 11:29:15;;;;;;;7.53;4.78;;;9.60;99.90;;;;;;5113331;28;20214;-52
2023/01/03 11:31:50;;;;;;;6.55;4.90;;;9.80;99.90;;;;;;5113728;28;20170;-52
2023/01/03 11:34:24;;;;;;;8.05;4.70;;;9.90;99.90;;;;;;5113458;28;20181;-53
2023/01/03 11:37:05;;;;;;;7.45;4.82;;;9.90;99.90;;;;;;5113515;28;20176;-52
2023/01/03 11:40:11;;;;;;;8.30;4.38;;;9.90;99.90;;;;;;5113421;28;20218;-54
2023/01/03 11:43:03;;;;;;;9.75;4.40;;;10.10;99.90;;;;;;5142470;27;20191;-54
2023/01/03 11:45:55;;;;;;;6.35;4.65;;;10.10;99.90;;;;;;5113333;28;20205;-53
2023/01/03 11:48:46;;;;;;;6.72;4.18;;;10.00;99.90;;;;;;5114984;27;20185;-54
2023/01/03 11:51:20;;;;;;;7.60;4.25;;;10.10;99.90;;;;;;5112151;28;20567;-54
2023/01/03 11:54:12;;;;;;;7.28;4.50;;;9.90;99.90;;;;;;5113475;28;20230;-53
2023/01/03 11:56:44;;;;;;;7.68;3.88;;;10.00;99.90;;;;;;5113425;28;20284;-53
2023/01/03 11:59:37;;;;;;;6.03;4.07;;;10.00;99.90;;;;;;5113135;28;20260;-51
2023/01/03 12:02:39;;;;;;;7.55;4.20;;;10.10;99.90;;;;;;5112183;28;20177;-54
2023/01/03 12:05:23;;;;;;;9.45;4.43;;;10.00;99.90;;;;;;5112245;28;20176;-51
2023/01/03 12:08:20;;;;;;;8.10;4.57;;;10.20;99.90;;;;;;5114093;28;20272;-53
2023/01/03 12:10:58;;;;;;;8.73;4.32;;;10.20;99.90;;;;;;5115600;28;20248;-54
2023/01/03 12:13:46;;;;;;;9.02;4.40;;;10.20;99.90;;;;;;5116989;28;20180;-57
2023/01/03 12:16:16;;;;;;;8.63;4.90;;;10.20;99.90;;;;;;5117180;28;20204;-55
2023/01/03 12:18:59;;;;;;;8.05;4.20;;;10.20;99.90;;;;;;5115655;28;20188;-53
2023/01/03 12:21:35;;;;;;;9.82;3.97;;;10.20;99.90;;;;;;5115977;28;20204;-54
2023/01/03 12:24:24;;;;;;;7.22;4.10;;;10.10;99.90;;;;;;5116758;28;20276;-54
2023/01/03 12:26:59;;;;;;;5.90;4.00;;;10.00;99.90;;;;;;5108770;28;20584;-52
2023/01/03 12:29:49;;;;;;;9.02;4.45;;;10.00;99.90;;;;;;5115354;28;20180;-51
2023/01/03 12:32:22;;;;;;;9.65;3.90;;;9.90;99.90;;;;;;5116840;28;20161;-53
2023/01/03 12:34:55;;;;;;;9.30;3.70;;;10.00;99.90;;;;;;5115401;28;20177;-57
2023/01/03 12:37:39;;;;;;;8.32;4.15;;;9.90;99.90;;;;;;5116896;28;20180;-57
2023/01/03 12:40:39;;;;;;;10.68;4.07;;;9.90;99.90;;;;;;5115493;28;20295;-55
2023/01/03 12:43:32;;;;;;;8.23;4.32;;;9.80;99.90;;;;;;5116489;28;20627;-55
2023/01/03 12:46:14;;;;;;;10.93;4.40;;;10.00;99.90;;;;;;5116166;28;20172;-55
2023/01/03 12:49:04;;;;;;;8.93;3.92;;;10.00;99.90;;;;;;5116176;28;20180;-51
2023/01/03 12:51:30;;;;;;;8.27;3.65;;;10.10;99.90;;;;;;5116119;28;20254;-55
2023/01/03 12:54:09;;;;;;;10.38;3.78;;;10.20;99.90;;;;;;5116135;28;20692;-54
2023/01/03 12:56:56;;;;;;;8.45;3.67;;;10.20;99.90;;;;;;5116056;28;20209;-51
2023/01/03 12:59:44;;;;;;;10.43;3.92;;;10.20;99.90;;;;;;5115876;28;20218;-51
2023/01/03 13:02:21;;;;;;;8.35;3.92;;;10.20;99.90;;;;;;5115880;28;20165;-55
2023/01/03 13:04:51;;;;;;;9.20;3.78;;;10.20;99.90;;;;;;5115760;28;20191;-53
2023/01/03 13:07:27;;;;;;;7.35;3.60;;;10.20;99.90;;;;;;5115954;28;20165;-53
2023/01/03 13:10:16;;;;;;;7.90;4.28;;;10.20;99.90;;;;;;5116066;28;20206;-53
2023/01/03 13:12:49;;;;;;;8.38;3.88;;;10.20;99.90;;;;;;5115281;28;20193;-53
2023/01/03 13:15:24;;;;;;;6.90;3.80;;;10.10;99.90;;;;;;5114429;28;20169;-52
2023/01/03 13:17:49;;;;;;;9.60;3.78;;;10.20;99.90;;;;;;5115843;28;20169;-54
2023/01/03 13:20:33;;;;;;;6.55;3.75;;;10.10;99.90;;;;;;5114828;28;20554;-53
2023/01/03 13:23:20;;;;;;;11.65;4.18;;;10.10;99.90;;;;;;5115584;28;20181;-53
2023/01/03 13:26:09;;;;;;;10.35;3.92;;;10.20;99.90;;;;;;5114114;28;20169;-53
2023/01/03 13:28:36;;;;;;;9.73;3.55;;;10.20;99.90;;;;;;5115436;28;20181;-54
2023/01/03 13:31:15;;;;;;;8.25;3.40;;;10.20;99.90;;;;;;5115408;28;20177;-54
2023/01/03 13:34:14;;;;;;;9.80;3.58;;;10.30;99.90;;;;;;5115345;28;20284;-54
2023/01/03 13:37:05;;;;;;;11.02;3.30;;;10.30;99.90;;;;;;5089355;28;20661;-53
2023/01/03 13:39:56;;;;;;;7.32;3.50;;;10.20;99.90;;;;;;5115117;28;20212;-53
2023/01/03 13:42:25;;;;;;;9.20;3.25;;;10.30;99.90;;;;;;5113962;28;20634;-55
2023/01/03 13:45:11;;;;;;;7.15;3.50;;;10.30;99.90;;;;;;5115398;28;20661;-53
2023/01/03 13:47:42;;;;;;;8.93;4.70;;;10.30;99.90;;;;;;5114971;28;20253;-52
2023/01/03 13:50:35;;;;;;;11.70;6.70;;;10.30;99.90;;;;;;5115081;28;20173;-53
2023/01/03 13:53:25;;;;;;;10.60;6.40;;;10.40;99.90;;;;;;5112369;28;20177;-53
2023/01/03 13:55:59;;;;;;;10.52;5.25;;;10.30;99.90;;;;;;5115043;28;20192;-50
2023/01/03 13:58:27;;;;;;;11.73;5.78;;;10.20;99.90;;;;;;5114840;28;20175;-54
2023/01/03 14:00:59;;;;;;;8.63;4.88;;;10.30;99.90;;;;;;5114625;28;20323;-54
2023/01/03 14:03:48;;;;;;;10.00;4.07;;;10.30;99.90;;;;;;5114811;28;20173;-53
2023/01/03 14:06:51;;;;;;;9.32;4.25;;;10.30;99.90;;;;;;5114917;28;20277;-53
2023/01/03 14:09:20;;;;;;;10.77;3.80;;;10.30;99.90;;;;;;5114446;28;20222;-53
2023/01/03 14:11:55;;;;;;;11.13;4.10;;;10.20;99.90;;;;;;5114368;28;20195;-54
2023/01/03 14:14:25;;;;;;;10.73;5.50;;;10.20;99.90;;;;;;5114711;28;20234;-54
2023/01/03 14:16:55;;;;;;;9.60;4.00;;;10.10;99.90;;;;;;5114628;28;20183;-53